sensor_id;sensor_type;location;lat;lon;timestamp;temperature;humidity
34558;DHT22;24708;48.888;8.736;2023-03-14T06:31:19;10.80;99.90
34558;DHT22;24708;48.888;8.736;2023-03-14T06:33:46;10.30;99.90
34558;DHT22;24708;48.888;8.736;2023-03-14T06:38:41;10.70;99.90
34558;DHT22;24708;48.888;8.736;2023-03-14T06:43:37;10.00;99.90
34558;DHT22;24708;48.888;8.736;2023-03-14T06:46:04;10.50;99.90
34558;DHT22;24708;48.888;8.736;2023-03-14T07:00:53;12.60;99.90
34558;DHT22;24708;48.888;8.736;2023-03-14T07:05:55;12.30;99.90
34558;DHT22;24708;48.888;8.736;2023-03-14T07:08:25;12.70;99.90
34558;DHT22;24708;48.888;8.736;2023-03-14T07:10:56;12.80;99.90
34558;DHT22;24708;48.888;8.736;2023-03-14T07:13:26;12.40;99.90
34558;DHT22;24708;48.888;8.736;2023-03-14T07:15:55;12.40;99.90
34558;DHT22;24708;48.888;8.736;2023-03-14T07:18:33;12.20;99.90
34558;DHT22;24708;48.888;8.736;2023-03-14T07:21:08;12.10;99.90
34558;DHT22;24708;48.888;8.736;2023-03-14T07:23:46;12.30;99.90
34558;DHT22;24708;48.888;8.736;2023-03-14T07:26:25;12.60;99.90
34558;DHT22;24708;48.888;8.736;2023-03-14T07:29:05;12.90;99.90
34558;DHT22;24708;48.888;8.736;2023-03-14T07:31:36;12.90;99.90
34558;DHT22;24708;48.888;8.736;2023-03-14T07:34:08;13.00;99.90
34558;DHT22;24708;48.888;8.736;2023-03-14T07:36:44;13.00;99.90
34558;DHT22;24708;48.888;8.736;2023-03-14T07:39:22;13.00;99.90
34558;DHT22;24708;48.888;8.736;2023-03-14T07:44:27;13.00;99.90
34558;DHT22;24708;48.888;8.736;2023-03-14T07:52:02;11.90;99.90
34558;DHT22;24708;48.888;8.736;2023-03-14T07:54:31;11.70;99.90
34558;DHT22;24708;48.888;8.736;2023-03-14T07:57:06;11.60;99.90
34558;DHT22;24708;48.888;8.736;2023-03-14T07:59:38;11.60;99.90
34558;DHT22;24708;48.888;8.736;2023-03-14T08:04:39;11.60;99.90
34558;DHT22;24708;48.888;8.736;2023-03-14T08:09:35;11.70;99.90
34558;DHT22;24708;48.888;8.736;2023-03-14T08:21:57;11.40;99.90
34558;DHT22;24708;48.888;8.736;2023-03-14T08:24:25;11.30;99.90
34558;DHT22;24708;48.888;8.736;2023-03-14T08:26:52;11.40;99.90
34558;DHT22;24708;48.888;8.736;2023-03-14T08:39:15;11.30;99.90
34558;DHT22;24708;48.888;8.736;2023-03-14T08:41:49;11.30;99.90
34558;DHT22;24708;48.888;8.736;2023-03-14T08:44:24;11.40;99.90
34558;DHT22;24708;48.888;8.736;2023-03-14T08:49:22;11.40;99.90
34558;DHT22;24708;48.888;8.736;2023-03-14T08:54:25;11.20;99.90
34558;DHT22;24708;48.888;8.736;2023-03-14T09:01:52;11.50;99.90
34558;DHT22;24708;48.888;8.736;2023-03-14T09:06:51;11.70;99.90
34558;DHT22;24708;48.888;8.736;2023-03-14T09:09:29;11.70;99.90
34558;DHT22;24708;48.888;8.736;2023-03-14T09:12:04;11.80;99.90
34558;DHT22;24708;48.888;8.736;2023-03-14T09:14:39;10.30;99.90
34558;DHT22;24708;48.888;8.736;2023-03-14T09:17:10;11.60;99.90
34558;DHT22;24708;48.888;8.736;2023-03-14T09:19:41;11.60;99.90
34558;DHT22;24708;48.888;8.736;2023-03-14T09:22:29;11.60;99.90
34558;DHT22;24708;48.888;8.736;2023-03-14T09:25:01;11.50;99.90
34558;DHT22;24708;48.888;8.736;2023-03-14T09:27:34;11.40;99.90
34558;DHT22;24708;48.888;8.736;2023-03-14T09:30:10;11.50;99.90
34558;DHT22;24708;48.888;8.736;2023-03-14T09:32:44;11.50;99.90
34558;DHT22;24708;48.888;8.736;2023-03-14T09:35:15;11.50;99.90
34558;DHT22;24708;48.888;8.736;2023-03-14T09:37:57;12.00;99.90
34558;DHT22;24708;48.888;8.736;2023-03-14T09:40:31;11.70;99.90
34558;DHT22;24708;48.888;8.736;2023-03-14T09:43:04;11.90;99.90
34558;DHT22;24708;48.888;8.736;2023-03-14T09:45:37;11.90;99.90
34558;DHT22;24708;48.888;8.736;2023-03-14T09:48:12;12.00;99.90
34558;DHT22;24708;48.888;8.736;2023-03-14T09:50:55;12.20;99.90
34558;DHT22;24708;48.888;8.736;2023-03-14T09:53:27;12.20;99.90
34558;DHT22;24708;48.888;8.736;2023-03-14T09:55:58;12.50;99.90
34558;DHT22;24708;48.888;8.736;2023-03-14T10:00:56;12.50;99.90
34558;DHT22;24708;48.888;8.736;2023-03-14T10:03:35;12.70;99.90
34558;DHT22;24708;48.888;8.736;2023-03-14T10:06:10;12.80;99.90
34558;DHT22;24708;48.888;8.736;2023-03-14T10:08:40;12.50;99.90
34558;DHT22;24708;48.888;8.736;2023-03-14T10:11:15;12.40;99.90
34558;DHT22;24708;48.888;8.736;2023-03-14T10:16:32;12.00;99.90
34558;DHT22;24708;48.888;8.736;2023-03-14T10:19:03;11.90;99.90
34558;DHT22;24708;48.888;8.736;2023-03-14T10:21:39;11.80;99.90
34558;DHT22;24708;48.888;8.736;2023-03-14T10:24:20;11.80;99.90
34558;DHT22;24708;48.888;8.736;2023-03-14T10:26:53;11.80;99.90
34558;DHT22;24708;48.888;8.736;2023-03-14T10:32:02;11.80;99.90
34558;DHT22;24708;48.888;8.736;2023-03-14T10:37:17;11.70;99.90
34558;DHT22;24708;48.888;8.736;2023-03-14T10:39:48;11.50;99.90
34558;DHT22;24708;48.888;8.736;2023-03-14T10:42:19;11.50;99.90
34558;DHT22;24708;48.888;8.736;2023-03-14T10:44:54;11.00;99.90
34558;DHT22;24708;48.888;8.736;2023-03-14T10:47:27;11.00;99.90
34558;DHT22;24708;48.888;8.736;2023-03-14T10:50:29;11.00;99.90
34558;DHT22;24708;48.888;8.736;2023-03-14T10:53:02;11.00;99.90
34558;DHT22;24708;48.888;8.736;2023-03-14T10:55:45;10.90;99.90
34558;DHT22;24708;48.888;8.736;2023-03-14T10:58:41;10.80;99.90
34558;DHT22;24708;48.888;8.736;2023-03-14T11:05:00;10.80;99.90
34558;DHT22;24708;48.888;8.736;2023-03-14T11:07:42;11.00;99.90
34558;DHT22;24708;48.888;8.736;2023-03-14T11:21:08;10.70;99.90
34558;DHT22;24708;48.888;8.736;2023-03-14T11:26:41;10.80;99.90
34558;DHT22;24708;48.888;8.736;2023-03-14T11:35:03;10.40;99.90
34558;DHT22;24708;48.888;8.736;2023-03-14T11:37:36;10.00;99.90
34558;DHT22;24708;48.888;8.736;2023-03-14T11:40:17;10.30;99.90
34558;DHT22;24708;48.888;8.736;2023-03-14T11:42:52;10.20;99.90
34558;DHT22;24708;48.888;8.736;2023-03-14T11:45:32;10.10;99.90
34558;DHT22;24708;48.888;8.736;2023-03-14T11:48:38;10.00;99.90
34558;DHT22;24708;48.888;8.736;2023-03-14T11:51:30;9.80;99.90
34558;DHT22;24708;48.888;8.736;2023-03-14T11:54:20;9.70;99.90
34558;DHT22;24708;48.888;8.736;2023-03-14T11:56:59;9.50;99.90
34558;DHT22;24708;48.888;8.736;2023-03-14T11:59:50;9.30;99.90
34558;DHT22;24708;48.888;8.736;2023-03-14T12:11:00;8.50;99.90
34558;DHT22;24708;48.888;8.736;2023-03-14T12:13:36;8.20;99.90
34558;DHT22;24708;48.888;8.736;2023-03-14T12:16:19;8.00;99.90
34558;DHT22;24708;48.888;8.736;2023-03-14T12:18:48;7.70;99.90
34558;DHT22;24708;48.888;8.736;2023-03-14T12:23:53;7.50;99.90
34558;DHT22;24708;48.888;8.736;2023-03-14T12:26:23;7.60;99.90
34558;DHT22;24708;48.888;8.736;2023-03-14T12:29:16;7.90;99.90
34558;DHT22;24708;48.888;8.736;2023-03-14T12:47:00;10.00;99.90
34558;DHT22;24708;48.888;8.736;2023-03-14T12:49:41;10.00;99.90
34558;DHT22;24708;48.888;8.736;2023-03-14T12:52:21;9.90;99.90
34558;DHT22;24708;48.888;8.736;2023-03-14T12:55:06;9.40;99.90
34558;DHT22;24708;48.888;8.736;2023-03-14T12:58:03;9.60;99.90
34558;DHT22;24708;48.888;8.736;2023-03-14T13:00:35;9.60;99.90
34558;DHT22;24708;48.888;8.736;2023-03-14T13:03:21;8.90;99.90
34558;DHT22;24708;48.888;8.736;2023-03-14T13:06:01;8.80;99.90
34558;DHT22;24708;48.888;8.736;2023-03-14T13:08:42;9.90;99.90
34558;DHT22;24708;48.888;8.736;2023-03-14T13:11:19;9.30;99.90
34558;DHT22;24708;48.888;8.736;2023-03-14T13:13:59;9.30;99.90
34558;DHT22;24708;48.888;8.736;2023-03-14T13:16:30;9.20;99.90
34558;DHT22;24708;48.888;8.736;2023-03-14T13:19:02;9.00;99.90
34558;DHT22;24708;48.888;8.736;2023-03-14T13:21:35;8.80;99.90
34558;DHT22;24708;48.888;8.736;2023-03-14T13:24:06;9.60;99.90
34558;DHT22;24708;48.888;8.736;2023-03-14T13:26:42;10.00;99.90
34558;DHT22;24708;48.888;8.736;2023-03-14T13:29:24;10.20;99.90
34558;DHT22;24708;48.888;8.736;2023-03-14T13:32:13;10.10;99.90
34558;DHT22;24708;48.888;8.736;2023-03-14T13:34:43;9.40;99.90
34558;DHT22;24708;48.888;8.736;2023-03-14T13:37:20;10.20;99.90
34558;DHT22;24708;48.888;8.736;2023-03-14T13:39:52;9.70;99.90
34558;DHT22;24708;48.888;8.736;2023-03-14T13:42:43;9.90;99.90
34558;DHT22;24708;48.888;8.736;2023-03-14T13:45:49;10.30;99.90
34558;DHT22;24708;48.888;8.736;2023-03-14T13:48:17;10.20;99.90
34558;DHT22;24708;48.888;8.736;2023-03-14T13:51:06;10.50;99.90
34558;DHT22;24708;48.888;8.736;2023-03-14T13:53:51;9.60;99.90
34558;DHT22;24708;48.888;8.736;2023-03-14T13:56:24;9.70;99.90
34558;DHT22;24708;48.888;8.736;2023-03-14T14:01:30;9.20;99.90
34558;DHT22;24708;48.888;8.736;2023-03-14T14:04:09;9.10;99.90
34558;DHT22;24708;48.888;8.736;2023-03-14T14:06:47;9.10;99.90
34558;DHT22;24708;48.888;8.736;2023-03-14T14:09:22;9.00;99.90
34558;DHT22;24708;48.888;8.736;2023-03-14T14:12:03;9.10;99.90
34558;DHT22;24708;48.888;8.736;2023-03-14T14:15:00;9.20;99.90
34558;DHT22;24708;48.888;8.736;2023-03-14T14:17:35;9.00;99.90
34558;DHT22;24708;48.888;8.736;2023-03-14T14:20:06;9.30;99.90
34558;DHT22;24708;48.888;8.736;2023-03-14T14:22:34;9.30;99.90
34558;DHT22;24708;48.888;8.736;2023-03-14T14:27:37;9.50;99.90
34558;DHT22;24708;48.888;8.736;2023-03-14T14:35:36;9.80;99.90
34558;DHT22;24708;48.888;8.736;2023-03-14T14:38:12;9.80;99.90
34558;DHT22;24708;48.888;8.736;2023-03-14T14:40:44;9.60;99.90
34558;DHT22;24708;48.888;8.736;2023-03-14T14:43:21;9.50;99.90
34558;DHT22;24708;48.888;8.736;2023-03-14T14:45:51;9.40;99.90
34558;DHT22;24708;48.888;8.736;2023-03-14T14:48:24;9.20;99.90
34558;DHT22;24708;48.888;8.736;2023-03-14T14:50:59;9.60;99.90
34558;DHT22;24708;48.888;8.736;2023-03-14T14:53:30;9.50;99.90
34558;DHT22;24708;48.888;8.736;2023-03-14T14:56:03;9.30;99.90
34558;DHT22;24708;48.888;8.736;2023-03-14T14:58:36;9.60;99.90
34558;DHT22;24708;48.888;8.736;2023-03-14T15:01:24;9.30;99.90
34558;DHT22;24708;48.888;8.736;2023-03-14T15:03:54;9.20;99.90
34558;DHT22;24708;48.888;8.736;2023-03-14T15:06:22;9.30;99.90
34558;DHT22;24708;48.888;8.736;2023-03-14T15:08:52;9.30;99.90
34558;DHT22;24708;48.888;8.736;2023-03-14T15:11:22;9.30;99.90
34558;DHT22;24708;48.888;8.736;2023-03-14T15:13:51;9.00;99.90
34558;DHT22;24708;48.888;8.736;2023-03-14T15:16:26;9.10;99.90
34558;DHT22;24708;48.888;8.736;2023-03-14T15:18:57;8.70;99.90
34558;DHT22;24708;48.888;8.736;2023-03-14T15:21:26;8.50;99.90
34558;DHT22;24708;48.888;8.736;2023-03-14T15:23:54;8.70;99.90
34558;DHT22;24708;48.888;8.736;2023-03-14T15:26:24;8.90;99.90
34558;DHT22;24708;48.888;8.736;2023-03-14T15:28:51;8.30;99.90
34558;DHT22;24708;48.888;8.736;2023-03-14T15:31:19;8.80;99.90
34558;DHT22;24708;48.888;8.736;2023-03-14T15:33:48;9.50;99.90
34558;DHT22;24708;48.888;8.736;2023-03-14T15:38:51;8.50;99.90
34558;DHT22;24708;48.888;8.736;2023-03-14T15:41:19;8.80;99.90
34558;DHT22;24708;48.888;8.736;2023-03-14T15:43:47;8.70;99.90
34558;DHT22;24708;48.888;8.736;2023-03-14T15:46:15;8.90;99.90
34558;DHT22;24708;48.888;8.736;2023-03-14T15:48:45;9.10;99.90
34558;DHT22;24708;48.888;8.736;2023-03-14T15:53:40;8.90;99.90
34558;DHT22;24708;48.888;8.736;2023-03-14T15:56:11;8.80;99.90
34558;DHT22;24708;48.888;8.736;2023-03-14T15:58:39;8.70;99.90
34558;DHT22;24708;48.888;8.736;2023-03-14T16:01:08;8.90;99.90
34558;DHT22;24708;48.888;8.736;2023-03-14T16:06:04;8.50;99.90
34558;DHT22;24708;48.888;8.736;2023-03-14T16:16:00;8.10;99.90
34558;DHT22;24708;48.888;8.736;2023-03-14T16:18:31;8.40;99.90
34558;DHT22;24708;48.888;8.736;2023-03-14T16:21:05;8.40;99.90
34558;DHT22;24708;48.888;8.736;2023-03-14T16:23:33;8.00;99.90
34558;DHT22;24708;48.888;8.736;2023-03-14T16:26:06;8.30;99.90
34558;DHT22;24708;48.888;8.736;2023-03-14T16:28:34;8.20;99.90
34558;DHT22;24708;48.888;8.736;2023-03-14T16:31:06;8.20;99.90
34558;DHT22;24708;48.888;8.736;2023-03-14T16:33:35;8.10;99.90
34558;DHT22;24708;48.888;8.736;2023-03-14T16:36:04;7.00;99.90
34558;DHT22;24708;48.888;8.736;2023-03-14T16:38:35;6.90;99.90
34558;DHT22;24708;48.888;8.736;2023-03-14T16:41:14;6.50;99.90
34558;DHT22;24708;48.888;8.736;2023-03-14T16:43:42;6.50;99.90
34558;DHT22;24708;48.888;8.736;2023-03-14T16:46:14;6.20;99.90
34558;DHT22;24708;48.888;8.736;2023-03-14T16:48:45;6.40;99.90
34558;DHT22;24708;48.888;8.736;2023-03-14T16:51:14;6.40;99.90
34558;DHT22;24708;48.888;8.736;2023-03-14T16:53:43;6.20;99.90
34558;DHT22;24708;48.888;8.736;2023-03-14T16:56:10;5.90;99.90
